Time;durP1;ratioP1;P1;durP2;ratioP2;P2;SDS_P1;SDS_P2;PMS_P1;PMS_P2;Temp;Humidity;BMP_temperature;BMP_pressure;BME280_temperature;BME280_humidity;BME280_pressure;Samples;Min_cycle;Max_cycle;Signal;HPM_P1;HPM_P2
2023/05/28 00:00:56;;;;;;;0.50;0.43;;;;;;;18.33;72.90;95029.81;5011953;28;20499;-64
2023/05/28 00:03:25;;;;;;;0.70;0.60;;;;;;;18.02;71.80;94981.84;5010940;28;20452;-63
2023/05/28 00:05:54;;;;;;;0.80;0.63;;;;;;;18.24;70.50;95031.78;5011235;28;20502;-64
2023/05/28 00:08:23;;;;;;;0.40;0.20;;;;;;;18.35;72.95;95039.09;5010989;28;20440;-64
2023/05/28 00:10:59;;;;;;;0.50;0.40;;;;;;;18.29;70.53;95034.25;5011004;28;20847;-63
2023/05/28 00:13:30;;;;;;;9.90;1.90;;;;;;;18.08;70.02;95036.09;5011461;28;20472;-64
2023/05/28 00:15:59;;;;;;;0.40;0.20;;;;;;;18.17;70.91;95031.47;5011632;28;20440;-64
2023/05/28 00:18:28;;;;;;;0.50;0.30;;;;;;;18.12;70.56;95029.75;5011754;28;20440;-64
2023/05/28 00:20:57;;;;;;;0.60;0.40;;;;;;;17.88;69.95;95007.31;5012060;28;20524;-64
2023/05/28 00:23:25;;;;;;;0.50;0.50;;;;;;;18.17;71.28;95016.16;5013434;28;20452;-63
2023/05/28 00:25:54;;;;;;;0.40;0.30;;;;;;;18.15;69.92;95022.97;5015450;28;20484;-63
2023/05/28 00:28:22;;;;;;;0.40;0.33;;;;;;;18.12;70.77;95028.97;5015448;28;20440;-64
2023/05/28 00:30:52;;;;;;;0.40;0.30;;;;;;;18.27;70.17;95021.16;5015529;28;20436;-64
2023/05/28 00:33:20;;;;;;;0.40;0.30;;;;;;;18.29;70.73;95023.53;5015864;28;20443;-64
2023/05/28 00:35:49;;;;;;;2.63;0.30;;;;;;;18.24;70.12;95016.44;5015333;28;20944;-64
2023/05/28 00:38:18;;;;;;;0.67;0.60;;;;;;;18.08;69.52;95001.22;5015521;28;20494;-64
2023/05/28 00:40:46;;;;;;;0.40;0.30;;;;;;;18.10;69.98;95004.38;5015289;28;20490;-64
2023/05/28 00:43:15;;;;;;;0.40;0.40;;;;;;;18.16;70.72;94997.72;5015373;28;20916;-64
2023/05/28 00:45:44;;;;;;;0.40;0.30;;;;;;;18.18;70.79;95000.88;5015453;28;20515;-64
2023/05/28 00:48:13;;;;;;;0.40;0.30;;;;;;;18.20;70.56;95010.16;5015466;28;20436;-64
2023/05/28 00:50:44;;;;;;;0.40;0.20;;;;;;;18.27;68.54;94993.53;5014940;28;20448;-64
2023/05/28 00:53:13;;;;;;;0.40;0.30;;;;;;;18.37;70.83;94993.94;5015297;28;20447;-64
2023/05/28 00:55:42;;;;;;;0.40;0.30;;;;;;;18.35;68.83;95000.75;5002360;28;20444;-64
2023/05/28 00:58:11;;;;;;;0.40;0.30;;;;;;;18.14;69.49;94995.34;5014976;28;20936;-63
2023/05/28 01:00:42;;;;;;;0.40;0.30;;;;;;;18.20;69.02;94991.38;5014949;28;20444;-64
2023/05/28 01:03:11;;;;;;;0.40;0.37;;;;;;;18.39;69.19;94993.66;5014918;28;20998;-64
2023/05/28 01:05:41;;;;;;;0.40;0.30;;;;;;;18.35;69.10;94984.66;5015093;28;20512;-64
2023/05/28 01:08:10;;;;;;;0.40;0.30;;;;;;;18.63;71.53;94977.69;5014770;28;20440;-64
2023/05/28 01:10:39;;;;;;;0.40;0.20;;;;;;;18.88;74.05;94987.44;5014799;28;20451;-64
2023/05/28 01:13:08;;;;;;;0.40;0.30;;;;;;;18.99;74.37;94972.50;5014809;28;20495;-63
2023/05/28 01:15:37;;;;;;;0.50;0.30;;;;;;;18.85;73.98;94966.63;5015052;28;20467;-63
2023/05/28 01:18:06;;;;;;;0.40;0.27;;;;;;;18.96;77.18;94977.75;5014756;28;20820;-63
2023/05/28 01:20:35;;;;;;;0.40;0.20;;;;;;;18.97;78.05;94977.41;5014982;28;20460;-64
2023/05/28 01:23:07;;;;;;;0.40;0.20;;;;;;;18.98;79.58;94972.81;5014769;28;20444;-63
2023/05/28 01:25:38;;;;;;;0.40;0.20;;;;;;;18.95;77.65;94968.91;5014678;28;20562;-63
2023/05/28 01:28:13;;;;;;;0.50;0.30;;;;;;;18.81;79.38;94963.03;5002114;28;20491;-63
2023/05/28 01:30:43;;;;;;;0.40;0.33;;;;;;;18.87;78.18;94972.44;5014490;28;20465;-62
2023/05/28 01:33:12;;;;;;;0.37;0.20;;;;;;;18.86;77.54;94962.81;5014789;28;20455;-63
2023/05/28 01:35:40;;;;;;;2.77;0.30;;;;;;;18.70;77.09;94958.38;5013031;28;20451;-63
2023/05/28 01:38:11;;;;;;;0.40;0.20;;;;;;;18.56;77.46;94949.81;5014373;28;20476;-62
2023/05/28 01:40:45;;;;;;;0.30;0.20;;;;;;;18.39;78.54;94948.03;5014175;28;20932;-62
2023/05/28 01:43:14;;;;;;;0.40;0.30;;;;;;;18.58;79.33;94956.44;5018084;28;20455;-62
2023/05/28 01:45:43;;;;;;;0.40;0.20;;;;;;;18.63;80.21;94964.28;5014951;28;20820;-61
2023/05/28 01:48:12;;;;;;;0.40;0.20;;;;;;;18.31;81.03;94963.06;5013940;28;20498;-61
2023/05/28 01:50:40;;;;;;;0.50;0.50;;;;;;;18.29;80.49;94965.28;5013958;28;20444;-60
2023/05/28 01:53:09;;;;;;;0.40;0.20;;;;;;;18.43;81.60;94965.03;5013895;28;20457;-61
2023/05/28 01:55:37;;;;;;;0.40;0.20;;;;;;;18.49;80.04;94965.66;5013546;28;20432;-61
2023/05/28 01:58:08;;;;;;;0.40;0.20;;;;;;;18.36;80.93;94954.03;5013804;28;20436;-61
2023/05/28 02:00:43;;;;;;;0.60;0.30;;;;;;;18.46;79.99;94969.75;5014039;28;20445;-60
2023/05/28 02:03:11;;;;;;;0.50;0.50;;;;;;;18.46;80.25;94967.06;5013599;28;20498;-60
2023/05/28 02:05:40;;;;;;;0.40;0.20;;;;;;;18.48;80.11;94972.91;5013717;28;20447;-61
2023/05/28 02:08:08;;;;;;;0.40;0.33;;;;;;;18.50;80.41;94970.69;5013391;28;20437;-60
2023/05/28 02:10:37;;;;;;;0.30;0.20;;;;;;;18.47;81.27;94975.94;5013531;28;20494;-60
2023/05/28 02:13:06;;;;;;;0.40;0.20;;;;;;;18.50;81.67;94978.75;5013549;28;20436;-60
2023/05/28 02:15:35;;;;;;;0.40;0.20;;;;;;;18.45;82.70;94970.06;5013765;28;20514;-60
2023/05/28 02:18:03;;;;;;;0.40;0.20;;;;;;;18.45;82.03;94978.13;5013336;28;20436;-60
2023/05/28 02:20:32;;;;;;;0.40;0.20;;;;;;;18.07;83.50;94980.88;5013803;28;20440;-61
2023/05/28 02:23:00;;;;;;;0.40;0.30;;;;;;;17.83;85.82;94972.66;5013462;28;20482;-60
2023/05/28 02:25:29;;;;;;;0.60;0.43;;;;;;;17.42;87.67;94982.06;5013226;28;20475;-60
2023/05/28 02:27:58;;;;;;;0.40;0.30;;;;;;;17.52;92.38;94983.63;5013284;28;20515;-60
2023/05/28 02:30:27;;;;;;;0.40;0.30;;;;;;;17.30;93.43;94983.84;5013612;28;20443;-60
2023/05/28 02:32:56;;;;;;;0.43;0.40;;;;;;;16.99;95.31;94987.53;5013121;28;20436;-60
2023/05/28 02:35:24;;;;;;;0.80;0.80;;;;;;;17.05;97.52;94978.22;5013338;28;20449;-60
2023/05/28 02:37:53;;;;;;;0.40;0.30;;;;;;;17.36;100.00;94977.97;5013022;28;20937;-60
2023/05/28 02:40:21;;;;;;;0.40;0.20;;;;;;;17.14;94.38;94967.50;5013165;28;20440;-59
2023/05/28 02:42:50;;;;;;;0.40;0.20;;;;;;;17.20;100.00;94968.13;5000698;28;20487;-60
2023/05/28 02:45:18;;;;;;;0.40;0.30;;;;;;;17.15;92.58;94971.75;5012496;28;20495;-59
2023/05/28 02:47:48;;;;;;;0.50;0.30;;;;;;;17.17;92.31;94974.91;5012837;28;20550;-60
2023/05/28 02:50:16;;;;;;;0.40;0.30;;;;;;;17.51;93.06;94990.06;5012719;28;20524;-59
2023/05/28 02:52:44;;;;;;;0.40;0.30;;;;;;;17.80;91.40;94990.16;5012750;28;20953;-60
2023/05/28 02:55:12;;;;;;;0.40;0.27;;;;;;;17.93;90.60;94983.81;5012532;28;20475;-59
2023/05/28 02:57:42;;;;;;;0.40;0.30;;;;;;;18.11;95.41;94985.28;5012840;28;20444;-60
2023/05/28 03:00:12;;;;;;;0.40;0.30;;;;;;;18.21;95.17;94986.81;5012520;28;20936;-59
2023/05/28 03:02:40;;;;;;;0.50;0.30;;;;;;;17.90;88.09;94997.84;5012715;28;20913;-60
2023/05/28 03:05:10;;;;;;;2.50;0.50;;;;;;;17.93;89.79;94980.34;5012552;28;20432;-60
2023/05/28 03:07:38;;;;;;;0.60;0.40;;;;;;;17.19;89.00;94980.72;5012624;28;20598;-60
2023/05/28 03:10:08;;;;;;;0.50;0.40;;;;;;;16.96;92.91;94979.34;5012828;28;20476;-59
2023/05/28 03:12:36;;;;;;;0.40;0.30;;;;;;;16.67;96.18;94966.59;5012581;28;20498;-60
2023/05/28 03:15:05;;;;;;;0.40;0.30;;;;;;;16.65;98.17;94976.81;5012577;28;20443;-59
2023/05/28 03:17:33;;;;;;;0.50;0.30;;;;;;;16.65;97.41;94971.47;5012432;28;20940;-59
2023/05/28 03:20:02;;;;;;;3.70;0.40;;;;;;;16.65;98.20;94974.16;5000080;28;20876;-60
2023/05/28 03:22:32;;;;;;;0.40;0.30;;;;;;;16.99;100.00;94982.19;5012170;28;20444;-59
2023/05/28 03:25:00;;;;;;;0.60;0.50;;;;;;;16.80;97.73;94964.88;5012197;28;20923;-59
2023/05/28 03:27:29;;;;;;;0.50;0.40;;;;;;;16.50;98.93;94961.22;5012535;28;20463;-59
2023/05/28 03:29:57;;;;;;;0.40;0.30;;;;;;;16.87;100.00;94957.16;5012481;28;20505;-59
2023/05/28 03:32:26;;;;;;;0.40;0.30;;;;;;;17.10;98.48;94961.22;5012468;28;20443;-59
2023/05/28 03:34:54;;;;;;;0.40;0.30;;;;;;;16.77;94.15;94960.94;5012200;28;20440;-60
2023/05/28 03:37:22;;;;;;;0.70;0.67;;;;;;;17.13;93.64;94955.19;5012045;28;20497;-59
2023/05/28 03:39:52;;;;;;;0.40;0.30;;;;;;;17.18;90.42;94952.34;5012419;28;20444;-59
2023/05/28 03:42:20;;;;;;;0.60;0.30;;;;;;;17.11;90.35;94954.72;5012309;28;20503;-59
2023/05/28 03:44:49;;;;;;;0.40;0.27;;;;;;;17.21;89.84;94959.75;5012025;28;20867;-59
2023/05/28 03:47:17;;;;;;;0.40;0.30;;;;;;;17.34;88.44;94958.78;5011866;28;20529;-59
2023/05/28 03:49:45;;;;;;;0.40;0.30;;;;;;;17.29;88.30;94953.59;5012276;28;20451;-59
2023/05/28 03:52:14;;;;;;;0.40;0.20;;;;;;;17.40;88.48;94954.03;5012308;28;20444;-59
2023/05/28 03:54:42;;;;;;;0.40;0.40;;;;;;;17.64;88.93;94951.59;5012014;28;20452;-59
2023/05/28 03:57:12;;;;;;;0.50;0.40;;;;;;;17.37;86.72;94960.03;5013555;28;20805;-59
2023/05/28 03:59:40;;;;;;;0.40;0.30;;;;;;;17.25;86.49;94963.38;5018413;28;20452;-59
2023/05/28 04:02:09;;;;;;;0.40;0.40;;;;;;;17.23;88.57;94956.78;5018396;28;20471;-59
2023/05/28 04:04:37;;;;;;;0.40;0.30;;;;;;;17.09;88.72;94954.28;5018408;28;20440;-59
2023/05/28 04:07:07;;;;;;;0.50;0.40;;;;;;;17.07;87.19;94951.94;5018174;28;20472;-59
2023/05/28 04:09:35;;;;;;;0.40;0.30;;;;;;;17.26;87.28;94959.59;5018429;28;20446;-58
2023/05/28 04:12:04;;;;;;;0.50;0.33;;;;;;;17.36;86.69;94951.19;5018343;28;20812;-60
2023/05/28 04:14:33;;;;;;;0.40;0.20;;;;;;;17.44;84.79;94963.78;5018471;28;20436;-59
2023/05/28 04:17:03;;;;;;;0.50;0.30;;;;;;;17.46;87.15;94939.34;5018376;28;21020;-60
2023/05/28 04:19:31;;;;;;;2.40;0.50;;;;;;;17.64;82.23;94949.72;5018360;28;20448;-60
2023/05/28 04:21:59;;;;;;;4.10;0.40;;;;;;;17.69;81.63;94956.78;5018240;28;20440;-62
2023/05/28 04:24:28;;;;;;;0.60;0.60;;;;;;;18.17;83.87;94956.34;5017832;28;20503;-60
2023/05/28 04:26:56;;;;;;;0.43;0.43;;;;;;;18.40;81.87;94954.94;5018197;28;20494;-60
2023/05/28 04:29:28;;;;;;;0.50;0.30;;;;;;;18.62;80.74;94948.50;5018315;28;20439;-61
2023/05/28 04:31:58;;;;;;;0.40;0.40;;;;;;;18.79;80.89;94946.47;5018203;28;20440;-62
2023/05/28 04:34:27;;;;;;;0.40;0.30;;;;;;;18.47;79.00;94935.69;5018611;28;20432;-61
2023/05/28 04:36:58;;;;;;;0.40;0.30;;;;;;;18.74;81.03;94945.88;5018208;28;21004;-62
2023/05/28 04:39:26;;;;;;;0.33;0.20;;;;;;;18.72;85.79;94940.81;5018224;28;20463;-61
2023/05/28 04:41:54;;;;;;;0.40;0.30;;;;;;;18.67;85.88;94934.88;5018158;28;20432;-61
2023/05/28 04:44:25;;;;;;;0.40;0.30;;;;;;;18.79;87.79;94940.31;5017942;28;20436;-61
2023/05/28 04:46:54;;;;;;;0.40;0.30;;;;;;;18.98;86.96;94944.06;5017664;28;20435;-61
2023/05/28 04:49:24;;;;;;;0.40;0.20;;;;;;;19.11;88.69;94946.78;5005863;28;20808;-63
2023/05/28 04:51:52;;;;;;;1.03;0.43;;;;;;;19.06;90.77;94949.69;5017980;28;20451;-62
2023/05/28 04:54:21;;;;;;;0.40;0.20;;;;;;;18.92;91.94;94950.75;5018308;28;20948;-63
2023/05/28 04:56:49;;;;;;;0.40;0.30;;;;;;;19.11;90.84;94946.78;5017951;28;20444;-63
2023/05/28 04:59:18;;;;;;;0.37;0.20;;;;;;;19.12;88.28;94951.84;5018106;28;20440;-63
2023/05/28 05:01:46;;;;;;;0.40;0.20;;;;;;;19.15;83.35;94935.03;5017827;28;20455;-63
2023/05/28 05:04:14;;;;;;;0.40;0.23;;;;;;;19.37;80.42;94955.41;5017940;28;20440;-63
2023/05/28 05:06:44;;;;;;;0.40;0.27;;;;;;;19.31;82.70;94940.56;5017801;28;20463;-63
2023/05/28 05:09:13;;;;;;;0.40;0.20;;;;;;;19.34;85.56;94959.50;5016508;28;20476;-63
2023/05/28 05:11:41;;;;;;;0.30;0.20;;;;;;;19.38;86.48;94946.25;5014653;28;20440;-63
2023/05/28 05:14:10;;;;;;;0.50;0.30;;;;;;;19.31;80.72;94960.16;5014766;28;20497;-62
2023/05/28 05:16:38;;;;;;;0.50;0.50;;;;;;;19.09;82.05;94946.34;5014977;28;20532;-64
2023/05/28 05:19:07;;;;;;;0.97;0.50;;;;;;;19.25;80.75;94950.72;5014664;28;20440;-63
2023/05/28 05:21:35;;;;;;;1.23;0.67;;;;;;;19.32;82.41;94952.91;5014220;28;20444;-63
2023/05/28 05:24:05;;;;;;;0.40;0.33;;;;;;;19.36;80.31;94945.72;5014456;28;20472;-63
2023/05/28 05:26:34;;;;;;;0.30;0.20;;;;;;;19.56;81.41;94939.50;5014392;28;20447;-63
2023/05/28 05:29:02;;;;;;;0.40;0.40;;;;;;;19.74;81.58;94942.78;5014078;28;20538;-61
2023/05/28 05:31:31;;;;;;;3.67;0.50;;;;;;;20.11;81.09;94942.44;5014111;28;20819;-63
2023/05/28 05:33:59;;;;;;;0.40;0.30;;;;;;;20.07;76.83;94944.25;5014183;28;20441;-62
2023/05/28 05:36:28;;;;;;;0.57;0.30;;;;;;;19.96;76.46;94942.34;5014391;28;20442;-62
2023/05/28 05:38:56;;;;;;;0.50;0.50;;;;;;;19.78;75.58;94941.78;5014276;28;20447;-62
2023/05/28 05:41:26;;;;;;;0.60;0.40;;;;;;;20.17;73.56;94946.47;5013959;28;20444;-63
2023/05/28 05:43:54;;;;;;;0.50;0.47;;;;;;;20.65;71.59;94953.69;5013762;28;20447;-61
2023/05/28 05:46:23;;;;;;;0.83;0.83;;;;;;;20.63;71.01;94947.09;5013820;28;20480;-61
2023/05/28 05:48:51;;;;;;;0.40;0.30;;;;;;;20.76;69.03;94959.38;5013823;28;20572;-60
2023/05/28 05:51:19;;;;;;;0.40;0.30;;;;;;;20.98;69.49;94960.75;5014310;28;20440;-60
2023/05/28 05:53:48;;;;;;;0.43;0.33;;;;;;;20.88;69.29;94956.66;5013969;28;20527;-59
2023/05/28 05:56:16;;;;;;;0.80;0.40;;;;;;;20.80;68.72;94952.19;5019400;28;20498;-60
2023/05/28 05:58:46;;;;;;;0.60;0.40;;;;;;;20.82;67.87;94956.09;5013600;28;20491;-60
2023/05/28 06:01:17;;;;;;;0.50;0.50;;;;;;;20.75;67.75;94955.13;5014110;28;20444;-60
2023/05/28 06:03:45;;;;;;;2.20;0.50;;;;;;;20.95;69.16;94956.84;5013557;28;20436;-60
2023/05/28 06:06:14;;;;;;;0.40;0.30;;;;;;;21.04;67.79;94968.28;5013876;28;20493;-60
2023/05/28 06:08:42;;;;;;;0.70;0.60;;;;;;;20.79;67.30;94964.88;5013925;28;20476;-60
2023/05/28 06:11:10;;;;;;;0.60;0.40;;;;;;;20.62;68.00;94967.03;5013519;28;20979;-60
2023/05/28 06:13:39;;;;;;;0.40;0.30;;;;;;;20.35;67.48;94965.09;5001290;28;20479;-60
2023/05/28 06:16:10;;;;;;;0.60;0.40;;;;;;;20.36;68.22;94978.22;5013284;28;20536;-61
2023/05/28 06:18:39;;;;;;;0.40;0.30;;;;;;;20.53;68.64;94980.66;5013111;28;20444;-60
2023/05/28 06:21:08;;;;;;;0.77;0.50;;;;;;;20.60;72.75;94978.16;5012223;28;20460;-60
2023/05/28 06:23:37;;;;;;;0.40;0.30;;;;;;;20.87;72.19;94990.13;5012237;28;20480;-60
2023/05/28 06:26:05;;;;;;;0.40;0.30;;;;;;;21.10;70.94;94987.72;5011639;28;20459;-60
2023/05/28 06:28:33;;;;;;;0.47;0.37;;;;;;;20.98;67.99;94990.41;5012392;28;21030;-59
2023/05/28 06:31:02;;;;;;;0.50;0.30;;;;;;;20.86;69.23;94997.41;5011216;28;20498;-61
2023/05/28 06:33:32;;;;;;;0.97;0.30;;;;;;;21.05;68.35;94993.31;5012448;28;20503;-61
2023/05/28 06:36:01;;;;;;;0.40;0.30;;;;;;;20.96;67.82;94998.84;5012432;28;20444;-60
2023/05/28 06:38:29;;;;;;;0.40;0.30;;;;;;;21.15;68.17;94999.00;5012478;28;20503;-61
2023/05/28 06:40:57;;;;;;;0.40;0.30;;;;;;;21.18;69.23;94995.63;5012480;28;20518;-60
2023/05/28 06:43:26;;;;;;;1.90;0.40;;;;;;;21.30;70.28;94995.56;5012458;28;20503;-60
2023/05/28 06:45:54;;;;;;;0.40;0.30;;;;;;;21.42;67.75;94989.34;5012259;28;21014;-61
2023/05/28 06:48:23;;;;;;;1.00;0.90;;;;;;;21.15;67.87;95006.34;5012191;28;21010;-60
2023/05/28 06:50:52;;;;;;;0.90;0.70;;;;;;;21.09;68.10;94999.59;4999243;28;20447;-60
2023/05/28 06:53:21;;;;;;;4.80;1.67;;;;;;;21.18;67.71;94989.44;5012197;28;20896;-60
2023/05/28 06:55:49;;;;;;;9.60;0.60;;;;;;;21.32;66.83;94995.25;5012094;28;20444;-60
2023/05/28 06:58:17;;;;;;;11.60;2.53;;;;;;;21.20;66.13;94971.81;5012243;28;20459;-60
2023/05/28 07:00:46;;;;;;;5.90;1.77;;;;;;;20.97;65.47;94994.25;5011997;28;20466;-60
2023/05/28 07:03:14;;;;;;;1.40;0.80;;;;;;;21.14;71.19;94985.88;5011917;28;20444;-60
2023/05/28 07:05:42;;;;;;;0.40;0.30;;;;;;;21.05;66.42;94977.91;5012343;28;20440;-60
2023/05/28 07:08:12;;;;;;;0.40;0.20;;;;;;;21.15;65.14;94953.19;5012143;28;20521;-60
2023/05/28 07:10:40;;;;;;;0.40;0.30;;;;;;;21.27;64.52;94982.00;5012073;28;20494;-60
2023/05/28 07:13:08;;;;;;;0.50;0.40;;;;;;;21.15;64.92;94977.44;5011919;28;20437;-60
2023/05/28 07:15:37;;;;;;;0.50;0.43;;;;;;;20.97;64.85;94975.38;5012128;28;20440;-60
2023/05/28 07:18:07;;;;;;;0.53;0.40;;;;;;;21.16;67.18;94980.94;5011472;28;20948;-60
2023/05/28 07:20:35;;;;;;;0.40;0.30;;;;;;;21.17;65.78;94983.31;5011631;28;20539;-60
2023/05/28 07:23:04;;;;;;;0.30;0.30;;;;;;;20.97;65.40;94978.84;5011508;28;20451;-60
2023/05/28 07:25:34;;;;;;;0.50;0.30;;;;;;;20.95;70.89;94978.41;5011549;28;20526;-60
2023/05/28 07:28:02;;;;;;;1.73;0.40;;;;;;;21.01;69.31;94977.03;5012032;28;20436;-60
2023/05/28 07:30:30;;;;;;;2.10;0.50;;;;;;;21.01;65.24;94963.56;5011347;28;20941;-60
2023/05/28 07:32:58;;;;;;;0.50;0.30;;;;;;;21.28;66.24;94980.88;5010908;28;20436;-60
2023/05/28 07:35:27;;;;;;;0.50;0.50;;;;;;;21.02;64.24;94965.16;5011789;28;20967;-60
2023/05/28 07:37:55;;;;;;;0.50;0.30;;;;;;;20.87;65.25;94912.00;4998648;28;20444;-60
2023/05/28 07:40:24;;;;;;;0.50;0.30;;;;;;;21.74;65.46;94973.97;5011303;28;20974;-60
2023/05/28 07:42:53;;;;;;;0.30;0.20;;;;;;;22.04;63.79;94962.41;5011717;28;20454;-60
2023/05/28 07:45:22;;;;;;;0.30;0.20;;;;;;;21.99;63.74;94956.50;5011036;28;20498;-60
2023/05/28 07:47:50;;;;;;;0.40;0.30;;;;;;;21.74;62.79;94963.19;5011227;28;20983;-60
2023/05/28 07:50:18;;;;;;;0.40;0.30;;;;;;;22.01;63.22;94959.66;5010902;28;20959;-60
2023/05/28 07:52:47;;;;;;;0.63;0.43;;;;;;;22.18;62.94;94953.09;5011639;28;20498;-60
2023/05/28 07:55:15;;;;;;;0.40;0.20;;;;;;;22.19;62.78;94951.97;5010761;28;20448;-59
2023/05/28 07:57:43;;;;;;;0.60;0.40;;;;;;;22.39;62.08;94946.25;5011291;28;20437;-59
2023/05/28 08:00:16;;;;;;;0.30;0.20;;;;;;;22.41;60.40;94949.41;5011018;28;20498;-59
2023/05/28 08:02:44;;;;;;;0.50;0.37;;;;;;;22.12;59.97;94941.78;5011614;28;20444;-59
2023/05/28 08:05:18;;;;;;;0.40;0.30;;;;;;;22.49;62.70;94947.63;5010961;28;20817;-59
2023/05/28 08:07:46;;;;;;;0.40;0.30;;;;;;;22.31;65.85;94949.16;5010977;28;20502;-59
2023/05/28 08:10:14;;;;;;;0.30;0.20;;;;;;;22.48;61.26;94946.84;5011132;28;20858;-59
2023/05/28 08:12:43;;;;;;;0.50;0.30;;;;;;;22.30;62.40;94944.88;5011244;28;20445;-59
2023/05/28 08:15:12;;;;;;;0.40;0.30;;;;;;;22.37;61.92;94939.63;5011177;28;20436;-59
2023/05/28 08:17:41;;;;;;;0.30;0.20;;;;;;;22.57;62.39;94942.00;5011095;28;20523;-58
2023/05/28 08:20:11;;;;;;;0.40;0.40;;;;;;;21.74;60.54;94906.53;5011057;28;20440;-59
2023/05/28 08:22:40;;;;;;;0.40;0.30;;;;;;;21.90;60.85;94959.41;5010804;28;20440;-58
2023/05/28 08:25:09;;;;;;;0.43;0.30;;;;;;;22.10;61.07;94952.94;5010852;28;21034;-58
2023/05/28 08:27:37;;;;;;;0.30;0.20;;;;;;;22.23;61.69;94945.50;5010935;28;20444;-58
2023/05/28 08:30:08;;;;;;;0.30;0.20;;;;;;;22.20;61.46;94940.03;5010769;28;20476;-58
2023/05/28 08:32:37;;;;;;;0.30;0.30;;;;;;;22.45;61.93;94942.16;5011174;28;20463;-58
2023/05/28 08:35:06;;;;;;;0.40;0.30;;;;;;;22.32;62.15;94935.28;5010883;28;20444;-58
2023/05/28 08:37:34;;;;;;;0.40;0.20;;;;;;;22.48;64.46;94929.84;5010729;28;20547;-58
2023/05/28 08:40:07;;;;;;;1.87;0.33;;;;;;;22.36;63.10;94930.78;5011059;28;20439;-58
2023/05/28 08:42:36;;;;;;;0.40;0.30;;;;;;;22.35;63.14;94921.09;5010522;28;20447;-59
2023/05/28 08:45:05;;;;;;;0.30;0.20;;;;;;;22.92;62.25;94933.13;5014077;28;20437;-59
2023/05/28 08:47:34;;;;;;;0.33;0.23;;;;;;;23.05;63.48;94929.88;5014246;28;20497;-59
2023/05/28 08:50:06;;;;;;;0.43;0.33;;;;;;;23.33;60.92;94918.81;5014382;28;20529;-59
2023/05/28 08:52:35;;;;;;;1.13;0.40;;;;;;;23.69;59.95;94925.66;5014696;28;20436;-59
2023/05/28 08:55:04;;;;;;;0.50;0.30;;;;;;;23.96;60.30;94916.41;5013988;28;20952;-59
2023/05/28 08:57:32;;;;;;;0.30;0.30;;;;;;;23.36;58.00;94920.84;5014835;28;20435;-59
2023/05/28 09:00:06;;;;;;;0.40;0.30;;;;;;;23.12;58.08;94923.84;5014082;28;20463;-59
2023/05/28 09:02:35;;;;;;;0.30;0.20;;;;;;;22.63;59.12;94920.94;5014010;28;20436;-59
2023/05/28 09:05:06;;;;;;;0.30;0.20;;;;;;;23.04;59.47;94930.25;5013781;28;20428;-58
2023/05/28 09:07:53;;;;;;;0.30;0.30;;;;;;;23.19;58.68;94930.16;5014151;28;20443;-59
2023/05/28 09:10:23;;;;;;;0.40;0.30;;;;;;;22.64;62.65;94941.44;5014370;28;20483;-58
2023/05/28 09:12:59;;;;;;;0.47;0.40;;;;;;;21.86;66.46;94947.72;5013981;28;20495;-58
2023/05/28 09:15:27;;;;;;;0.40;0.30;;;;;;;21.49;68.53;94947.16;5014192;28;20467;-58
2023/05/28 09:17:58;;;;;;;0.30;0.20;;;;;;;22.33;66.77;94942.28;5013755;28;20443;-58
2023/05/28 09:20:28;;;;;;;0.30;0.30;;;;;;;22.58;66.05;94943.59;5013873;28;20839;-58
2023/05/28 09:23:00;;;;;;;0.40;0.30;;;;;;;22.33;66.36;94949.56;5013875;28;20474;-59
2023/05/28 09:25:32;;;;;;;0.50;0.30;;;;;;;22.04;66.42;94946.22;5013692;28;20468;-59
2023/05/28 09:28:01;;;;;;;0.40;0.30;;;;;;;22.07;67.57;94934.75;5013568;28;20437;-59
2023/05/28 09:30:30;;;;;;;0.40;0.40;;;;;;;22.62;64.68;94933.66;5013377;28;20476;-59
2023/05/28 09:33:02;;;;;;;0.30;0.20;;;;;;;23.70;62.62;94930.72;5013391;28;20845;-59
2023/05/28 09:35:33;;;;;;;0.40;0.40;;;;;;;24.00;60.74;94933.53;5013766;28;20440;-60
2023/05/28 09:38:03;;;;;;;0.30;0.20;;;;;;;23.72;60.81;94857.28;5000706;28;20476;-60
2023/05/28 09:40:32;;;;;;;0.30;0.20;;;;;;;24.52;59.14;94928.13;5013052;28;20820;-60
2023/05/28 09:43:05;;;;;;;0.30;0.20;;;;;;;24.42;59.12;94933.38;5013564;28;20930;-61
2023/05/28 09:45:34;;;;;;;0.30;0.20;;;;;;;24.16;59.84;94931.47;5013155;28;20444;-60
2023/05/28 09:48:02;;;;;;;0.30;0.20;;;;;;;23.65;61.30;94925.63;5013155;28;20448;-60
2023/05/28 09:50:32;;;;;;;0.40;0.30;;;;;;;23.54;60.29;94919.22;5013335;28;20917;-60
2023/05/28 09:53:03;;;;;;;1.20;1.13;;;;;;;22.92;62.67;94922.31;5013474;28;20464;-59
2023/05/28 09:55:33;;;;;;;0.40;0.20;;;;;;;22.79;63.17;94920.88;5011971;28;20933;-59
2023/05/28 09:58:03;;;;;;;0.40;0.30;;;;;;;21.60;63.99;94898.91;5013046;28;20444;-59
2023/05/28 10:00:34;;;;;;;0.50;0.50;;;;;;;22.04;64.66;94921.94;5012817;28;20944;-59
2023/05/28 10:03:13;;;;;;;0.30;0.20;;;;;;;22.14;67.59;94931.41;5013023;28;20500;-58
2023/05/28 10:05:45;;;;;;;0.30;0.20;;;;;;;21.33;69.32;94934.78;5012905;28;20436;-58
2023/05/28 10:08:17;;;;;;;0.30;0.20;;;;;;;21.64;69.18;94929.44;5012659;28;20452;-59
2023/05/28 10:10:50;;;;;;;0.60;0.60;;;;;;;21.45;69.57;94932.03;5013135;28;20472;-59
2023/05/28 10:13:19;;;;;;;0.40;0.30;;;;;;;21.67;72.63;94947.63;5012903;28;20444;-59
2023/05/28 10:15:47;;;;;;;0.30;0.20;;;;;;;21.52;74.48;94945.69;5013024;28;20432;-60
2023/05/28 10:18:16;;;;;;;0.40;0.20;;;;;;;21.75;74.17;94949.38;5012713;28;20987;-60
2023/05/28 10:20:47;;;;;;;0.40;0.30;;;;;;;21.72;73.08;94930.38;5012850;28;20451;-60
2023/05/28 10:23:17;;;;;;;0.30;0.20;;;;;;;21.87;76.65;94941.22;4999673;28;20826;-60
2023/05/28 10:25:45;;;;;;;0.40;0.30;;;;;;;22.01;73.29;94925.34;5012827;28;20503;-60
2023/05/28 10:28:16;;;;;;;0.40;0.20;;;;;;;22.10;70.60;94900.88;5012289;28;20504;-60
2023/05/28 10:30:44;;;;;;;0.30;0.20;;;;;;;22.31;73.62;94933.75;5011844;28;20848;-60
2023/05/28 10:33:16;;;;;;;0.40;0.30;;;;;;;22.17;72.88;94925.31;5012335;28;20487;-60
2023/05/28 10:35:54;;;;;;;0.30;0.20;;;;;;;22.16;74.16;94929.16;5012195;28;20436;-59
2023/05/28 10:38:24;;;;;;;0.40;0.30;;;;;;;22.47;70.14;94920.16;5012226;28;20432;-59
2023/05/28 10:41:00;;;;;;;0.40;0.30;;;;;;;21.91;71.17;94930.47;5011965;28;21021;-59
2023/05/28 10:43:42;;;;;;;2.00;0.97;;;;;;;22.04;71.93;94918.44;5012453;28;20440;-59
2023/05/28 10:46:11;;;;;;;0.40;0.30;;;;;;;22.32;70.83;94918.31;5012333;28;20524;-59
2023/05/28 10:48:41;;;;;;;0.30;0.20;;;;;;;22.26;70.14;94882.72;5011835;28;20564;-59
2023/05/28 10:51:12;;;;;;;0.50;0.30;;;;;;;21.82;75.92;94929.84;5011962;28;20563;-60
2023/05/28 10:53:40;;;;;;;0.43;0.40;;;;;;;21.56;76.89;94934.97;5012315;28;20447;-61
2023/05/28 10:56:08;;;;;;;0.50;0.33;;;;;;;21.28;79.52;94937.75;5012262;28;20440;-62
2023/05/28 10:58:38;;;;;;;0.50;0.50;;;;;;;20.85;89.20;94946.56;5011849;28;20971;-62
2023/05/28 11:01:19;;;;;;;0.40;0.30;;;;;;;20.73;95.07;94944.69;5012061;28;20440;-62
2023/05/28 11:03:53;;;;;;;0.40;0.30;;;;;;;20.78;94.38;94946.38;5011586;28;20440;-62
2023/05/28 11:06:26;;;;;;;0.30;0.20;;;;;;;21.00;97.09;94948.50;5011741;28;20571;-62
2023/05/28 11:08:57;;;;;;;0.40;0.27;;;;;;;21.14;90.27;94943.56;5011976;28;20456;-62
2023/05/28 11:11:27;;;;;;;1.03;0.30;;;;;;;20.85;92.28;94941.97;5011508;28;20472;-62
2023/05/28 11:13:55;;;;;;;0.50;0.40;;;;;;;20.63;88.15;94944.38;5011697;28;20440;-62
2023/05/28 11:16:24;;;;;;;0.30;0.20;;;;;;;21.13;85.14;94944.66;5011531;28;20436;-62
2023/05/28 11:19:02;;;;;;;0.40;0.20;;;;;;;21.18;87.97;94947.13;5011676;28;20506;-62
2023/05/28 11:21:32;;;;;;;0.40;0.27;;;;;;;20.80;87.74;94949.50;5011384;28;20451;-62
2023/05/28 11:24:02;;;;;;;0.37;0.20;;;;;;;21.12;79.88;94953.91;5011205;28;20503;-62
2023/05/28 11:26:31;;;;;;;0.40;0.30;;;;;;;21.16;81.42;94952.06;5011773;28;20448;-63
2023/05/28 11:29:00;;;;;;;0.40;0.27;;;;;;;20.49;90.85;94949.38;5011215;28;20534;-63
2023/05/28 11:31:30;;;;;;;0.40;0.20;;;;;;;20.88;95.28;94938.59;5011252;28;20483;-63
2023/05/28 11:33:59;;;;;;;0.40;0.20;;;;;;;20.62;88.62;94950.88;5011322;28;20436;-62
2023/05/28 11:36:27;;;;;;;0.63;0.63;;;;;;;20.87;79.05;94941.63;5011247;28;20928;-63
2023/05/28 11:39:03;;;;;;;2.50;0.57;;;;;;;21.18;82.44;94941.72;5011383;28;20437;-63
2023/05/28 11:41:32;;;;;;;0.40;0.20;;;;;;;21.40;84.21;94935.75;5011162;28;20447;-63
2023/05/28 11:44:01;;;;;;;0.40;0.30;;;;;;;22.29;77.97;94927.13;5011415;28;20805;-61